sensor_id;sensor_type;location;lat;lon;timestamp;P1;durP1;ratioP1;P2;durP2;ratioP2
4980;SDS011;2507;50.392;7.482;2024-01-25T00:00:13;21.40;;;6.03;;
4980;SDS011;2507;50.392;7.482;2024-01-25T00:02:39;28.00;;;5.07;;
4980;SDS011;2507;50.392;7.482;2024-01-25T00:05:05;22.30;;;4.90;;
4980;SDS011;2507;50.392;7.482;2024-01-25T00:07:30;17.47;;;5.17;;
4980;SDS011;2507;50.392;7.482;2024-01-25T00:09:55;18.23;;;4.83;;
4980;SDS011;2507;50.392;7.482;2024-01-25T00:12:22;19.80;;;5.40;;
4980;SDS011;2507;50.392;7.482;2024-01-25T00:14:48;22.20;;;4.83;;
4980;SDS011;2507;50.392;7.482;2024-01-25T00:17:13;18.40;;;4.63;;
4980;SDS011;2507;50.392;7.482;2024-01-25T00:19:38;15.47;;;3.70;;
4980;SDS011;2507;50.392;7.482;2024-01-25T00:22:04;21.17;;;5.20;;
4980;SDS011;2507;50.392;7.482;2024-01-25T00:24:30;26.10;;;4.70;;
4980;SDS011;2507;50.392;7.482;2024-01-25T00:26:55;25.37;;;4.50;;
4980;SDS011;2507;50.392;7.482;2024-01-25T00:29:20;18.73;;;4.10;;
4980;SDS011;2507;50.392;7.482;2024-01-25T00:31:45;20.83;;;5.00;;
4980;SDS011;2507;50.392;7.482;2024-01-25T00:34:11;15.20;;;3.90;;
4980;SDS011;2507;50.392;7.482;2024-01-25T00:36:36;20.30;;;4.47;;
4980;SDS011;2507;50.392;7.482;2024-01-25T00:39:02;28.70;;;4.23;;
4980;SDS011;2507;50.392;7.482;2024-01-25T00:41:28;23.30;;;5.43;;
4980;SDS011;2507;50.392;7.482;2024-01-25T00:43:56;27.07;;;5.33;;
4980;SDS011;2507;50.392;7.482;2024-01-25T00:46:22;13.67;;;4.90;;
4980;SDS011;2507;50.392;7.482;2024-01-25T00:48:48;20.63;;;5.10;;
4980;SDS011;2507;50.392;7.482;2024-01-25T00:51:14;22.80;;;4.83;;
4980;SDS011;2507;50.392;7.482;2024-01-25T00:53:41;16.10;;;4.07;;
4980;SDS011;2507;50.392;7.482;2024-01-25T00:56:07;18.00;;;3.63;;
4980;SDS011;2507;50.392;7.482;2024-01-25T00:58:32;22.83;;;4.67;;
4980;SDS011;2507;50.392;7.482;2024-01-25T01:00:58;22.10;;;4.87;;
4980;SDS011;2507;50.392;7.482;2024-01-25T01:03:24;26.47;;;6.07;;
4980;SDS011;2507;50.392;7.482;2024-01-25T01:05:49;15.97;;;3.93;;
4980;SDS011;2507;50.392;7.482;2024-01-25T01:08:15;24.33;;;5.37;;
4980;SDS011;2507;50.392;7.482;2024-01-25T01:10:40;18.27;;;5.37;;
4980;SDS011;2507;50.392;7.482;2024-01-25T01:13:05;19.20;;;4.27;;
4980;SDS011;2507;50.392;7.482;2024-01-25T01:15:31;28.73;;;4.70;;
4980;SDS011;2507;50.392;7.482;2024-01-25T01:17:56;22.03;;;4.60;;
4980;SDS011;2507;50.392;7.482;2024-01-25T01:20:21;28.03;;;4.93;;
4980;SDS011;2507;50.392;7.482;2024-01-25T01:22:47;26.73;;;5.17;;
4980;SDS011;2507;50.392;7.482;2024-01-25T01:25:12;19.93;;;4.43;;
4980;SDS011;2507;50.392;7.482;2024-01-25T01:27:37;23.80;;;4.53;;
4980;SDS011;2507;50.392;7.482;2024-01-25T01:30:03;20.23;;;4.40;;
4980;SDS011;2507;50.392;7.482;2024-01-25T01:32:28;20.63;;;3.73;;
4980;SDS011;2507;50.392;7.482;2024-01-25T01:34:53;20.70;;;3.73;;
4980;SDS011;2507;50.392;7.482;2024-01-25T01:37:19;15.00;;;3.33;;
4980;SDS011;2507;50.392;7.482;2024-01-25T01:39:44;16.03;;;4.30;;
4980;SDS011;2507;50.392;7.482;2024-01-25T01:42:09;21.50;;;3.70;;
4980;SDS011;2507;50.392;7.482;2024-01-25T01:44:35;30.80;;;5.10;;
4980;SDS011;2507;50.392;7.482;2024-01-25T01:47:00;12.37;;;4.17;;
4980;SDS011;2507;50.392;7.482;2024-01-25T01:49:25;24.27;;;4.90;;
4980;SDS011;2507;50.392;7.482;2024-01-25T01:51:51;21.57;;;4.27;;
4980;SDS011;2507;50.392;7.482;2024-01-25T01:54:16;18.30;;;4.07;;
4980;SDS011;2507;50.392;7.482;2024-01-25T01:56:42;28.30;;;4.93;;
4980;SDS011;2507;50.392;7.482;2024-01-25T01:59:09;17.27;;;5.10;;
4980;SDS011;2507;50.392;7.482;2024-01-25T02:01:36;20.27;;;4.23;;
4980;SDS011;2507;50.392;7.482;2024-01-25T02:04:01;21.67;;;4.33;;
4980;SDS011;2507;50.392;7.482;2024-01-25T02:06:27;22.60;;;5.43;;
4980;SDS011;2507;50.392;7.482;2024-01-25T02:08:52;30.70;;;5.83;;
4980;SDS011;2507;50.392;7.482;2024-01-25T02:11:18;18.10;;;4.53;;
4980;SDS011;2507;50.392;7.482;2024-01-25T02:13:46;25.00;;;4.53;;
4980;SDS011;2507;50.392;7.482;2024-01-25T02:16:12;21.10;;;4.67;;
4980;SDS011;2507;50.392;7.482;2024-01-25T02:18:39;20.40;;;4.17;;
4980;SDS011;2507;50.392;7.482;2024-01-25T02:21:05;23.40;;;4.93;;
4980;SDS011;2507;50.392;7.482;2024-01-25T02:23:31;23.80;;;4.70;;
4980;SDS011;2507;50.392;7.482;2024-01-25T02:25:56;22.13;;;4.50;;
4980;SDS011;2507;50.392;7.482;2024-01-25T02:28:21;28.67;;;4.77;;
4980;SDS011;2507;50.392;7.482;2024-01-25T02:30:46;25.60;;;5.30;;
4980;SDS011;2507;50.392;7.482;2024-01-25T02:33:12;19.50;;;4.60;;
4980;SDS011;2507;50.392;7.482;2024-01-25T02:35:37;22.60;;;4.70;;
4980;SDS011;2507;50.392;7.482;2024-01-25T02:38:03;28.03;;;5.50;;
4980;SDS011;2507;50.392;7.482;2024-01-25T02:40:28;25.60;;;5.43;;
4980;SDS011;2507;50.392;7.482;2024-01-25T02:42:54;21.80;;;5.37;;
4980;SDS011;2507;50.392;7.482;2024-01-25T02:45:19;20.03;;;5.40;;
4980;SDS011;2507;50.392;7.482;2024-01-25T02:47:44;21.00;;;5.03;;
4980;SDS011;2507;50.392;7.482;2024-01-25T02:50:09;24.97;;;7.10;;
4980;SDS011;2507;50.392;7.482;2024-01-25T02:52:35;22.03;;;5.20;;
4980;SDS011;2507;50.392;7.482;2024-01-25T02:55:00;27.07;;;5.77;;
4980;SDS011;2507;50.392;7.482;2024-01-25T02:57:25;31.40;;;5.00;;
4980;SDS011;2507;50.392;7.482;2024-01-25T02:59:51;24.20;;;5.20;;
4980;SDS011;2507;50.392;7.482;2024-01-25T03:02:16;24.37;;;4.93;;
4980;SDS011;2507;50.392;7.482;2024-01-25T03:04:44;29.60;;;5.17;;
4980;SDS011;2507;50.392;7.482;2024-01-25T03:07:09;25.30;;;6.10;;
4980;SDS011;2507;50.392;7.482;2024-01-25T03:09:34;27.53;;;4.70;;
4980;SDS011;2507;50.392;7.482;2024-01-25T03:12:00;21.37;;;5.27;;
4980;SDS011;2507;50.392;7.482;2024-01-25T03:14:25;19.47;;;5.07;;
4980;SDS011;2507;50.392;7.482;2024-01-25T03:16:50;28.33;;;5.97;;
4980;SDS011;2507;50.392;7.482;2024-01-25T03:19:15;22.03;;;5.43;;
4980;SDS011;2507;50.392;7.482;2024-01-25T03:21:41;28.53;;;5.60;;
4980;SDS011;2507;50.392;7.482;2024-01-25T03:24:06;28.23;;;5.47;;
4980;SDS011;2507;50.392;7.482;2024-01-25T03:26:31;29.00;;;4.97;;
4980;SDS011;2507;50.392;7.482;2024-01-25T03:28:57;18.60;;;4.90;;
4980;SDS011;2507;50.392;7.482;2024-01-25T03:31:22;23.13;;;6.17;;
4980;SDS011;2507;50.392;7.482;2024-01-25T03:33:47;22.63;;;5.87;;
4980;SDS011;2507;50.392;7.482;2024-01-25T03:36:15;33.27;;;5.73;;
4980;SDS011;2507;50.392;7.482;2024-01-25T03:38:41;29.00;;;5.60;;
4980;SDS011;2507;50.392;7.482;2024-01-25T03:41:07;23.40;;;5.50;;
4980;SDS011;2507;50.392;7.482;2024-01-25T03:43:32;33.00;;;6.87;;
4980;SDS011;2507;50.392;7.482;2024-01-25T03:45:57;24.00;;;5.77;;
4980;SDS011;2507;50.392;7.482;2024-01-25T03:48:23;24.10;;;5.70;;
4980;SDS011;2507;50.392;7.482;2024-01-25T03:50:48;24.03;;;5.07;;
4980;SDS011;2507;50.392;7.482;2024-01-25T03:53:13;25.10;;;5.53;;
4980;SDS011;2507;50.392;7.482;2024-01-25T03:55:39;25.50;;;6.40;;
4980;SDS011;2507;50.392;7.482;2024-01-25T03:58:05;24.50;;;5.33;;
4980;SDS011;2507;50.392;7.482;2024-01-25T04:00:31;34.83;;;6.50;;
4980;SDS011;2507;50.392;7.482;2024-01-25T04:02:56;37.87;;;6.70;;
4980;SDS011;2507;50.392;7.482;2024-01-25T04:05:21;33.90;;;6.93;;
4980;SDS011;2507;50.392;7.482;2024-01-25T04:07:46;25.03;;;5.53;;
4980;SDS011;2507;50.392;7.482;2024-01-25T04:10:12;32.27;;;6.47;;
4980;SDS011;2507;50.392;7.482;2024-01-25T04:12:37;25.20;;;5.90;;
4980;SDS011;2507;50.392;7.482;2024-01-25T04:15:02;22.87;;;6.13;;
4980;SDS011;2507;50.392;7.482;2024-01-25T04:17:28;28.13;;;5.97;;
4980;SDS011;2507;50.392;7.482;2024-01-25T04:19:53;27.70;;;6.40;;
4980;SDS011;2507;50.392;7.482;2024-01-25T04:22:19;35.40;;;7.47;;
4980;SDS011;2507;50.392;7.482;2024-01-25T04:24:44;32.27;;;6.50;;
4980;SDS011;2507;50.392;7.482;2024-01-25T04:27:10;25.53;;;5.90;;
4980;SDS011;2507;50.392;7.482;2024-01-25T04:29:39;23.97;;;5.80;;
4980;SDS011;2507;50.392;7.482;2024-01-25T04:32:05;25.50;;;5.83;;
4980;SDS011;2507;50.392;7.482;2024-01-25T04:34:30;18.93;;;5.50;;
4980;SDS011;2507;50.392;7.482;2024-01-25T04:36:56;27.43;;;7.33;;
4980;SDS011;2507;50.392;7.482;2024-01-25T04:39:21;24.80;;;6.70;;
4980;SDS011;2507;50.392;7.482;2024-01-25T04:41:47;27.73;;;6.80;;
4980;SDS011;2507;50.392;7.482;2024-01-25T04:44:12;31.50;;;5.70;;
4980;SDS011;2507;50.392;7.482;2024-01-25T04:46:38;23.63;;;5.80;;
4980;SDS011;2507;50.392;7.482;2024-01-25T04:49:03;23.00;;;6.17;;
4980;SDS011;2507;50.392;7.482;2024-01-25T04:51:28;22.57;;;5.50;;
4980;SDS011;2507;50.392;7.482;2024-01-25T04:53:54;35.27;;;6.23;;
4980;SDS011;2507;50.392;7.482;2024-01-25T04:56:19;25.13;;;5.73;;
4980;SDS011;2507;50.392;7.482;2024-01-25T04:58:44;24.53;;;6.17;;
4980;SDS011;2507;50.392;7.482;2024-01-25T05:01:09;31.57;;;6.90;;
4980;SDS011;2507;50.392;7.482;2024-01-25T05:03:35;29.87;;;5.83;;
4980;SDS011;2507;50.392;7.482;2024-01-25T05:06:01;27.50;;;7.50;;
4980;SDS011;2507;50.392;7.482;2024-01-25T05:08:26;23.30;;;5.50;;
4980;SDS011;2507;50.392;7.482;2024-01-25T05:10:51;23.30;;;5.83;;
4980;SDS011;2507;50.392;7.482;2024-01-25T05:13:17;28.87;;;6.60;;
4980;SDS011;2507;50.392;7.482;2024-01-25T05:15:43;33.13;;;5.77;;
4980;SDS011;2507;50.392;7.482;2024-01-25T05:18:09;25.57;;;6.20;;
4980;SDS011;2507;50.392;7.482;2024-01-25T05:20:34;36.40;;;7.27;;
4980;SDS011;2507;50.392;7.482;2024-01-25T05:23:01;28.20;;;6.63;;
4980;SDS011;2507;50.392;7.482;2024-01-25T05:25:28;26.47;;;6.80;;
4980;SDS011;2507;50.392;7.482;2024-01-25T05:27:54;28.20;;;6.60;;
4980;SDS011;2507;50.392;7.482;2024-01-25T05:30:20;35.73;;;7.40;;
4980;SDS011;2507;50.392;7.482;2024-01-25T05:32:45;24.47;;;6.07;;
4980;SDS011;2507;50.392;7.482;2024-01-25T05:35:13;29.40;;;7.07;;
4980;SDS011;2507;50.392;7.482;2024-01-25T05:37:38;24.80;;;5.60;;
4980;SDS011;2507;50.392;7.482;2024-01-25T05:40:04;28.57;;;6.90;;
4980;SDS011;2507;50.392;7.482;2024-01-25T05:42:30;37.30;;;8.60;;
4980;SDS011;2507;50.392;7.482;2024-01-25T05:44:55;23.10;;;6.30;;
4980;SDS011;2507;50.392;7.482;2024-01-25T05:47:20;32.07;;;6.43;;
4980;SDS011;2507;50.392;7.482;2024-01-25T05:49:46;23.13;;;6.43;;
4980;SDS011;2507;50.392;7.482;2024-01-25T05:52:11;19.70;;;5.83;;
4980;SDS011;2507;50.392;7.482;2024-01-25T05:54:37;29.77;;;6.73;;
4980;SDS011;2507;50.392;7.482;2024-01-25T05:57:03;27.53;;;7.30;;
4980;SDS011;2507;50.392;7.482;2024-01-25T05:59:29;24.87;;;6.10;;
4980;SDS011;2507;50.392;7.482;2024-01-25T06:01:54;18.53;;;6.07;;
4980;SDS011;2507;50.392;7.482;2024-01-25T06:04:20;22.10;;;6.53;;
4980;SDS011;2507;50.392;7.482;2024-01-25T06:06:45;29.10;;;7.97;;
4980;SDS011;2507;50.392;7.482;2024-01-25T06:09:10;25.93;;;6.20;;
4980;SDS011;2507;50.392;7.482;2024-01-25T06:11:36;19.23;;;6.30;;
4980;SDS011;2507;50.392;7.482;2024-01-25T06:14:03;21.43;;;6.50;;
4980;SDS011;2507;50.392;7.482;2024-01-25T06:16:30;26.53;;;7.70;;
4980;SDS011;2507;50.392;7.482;2024-01-25T06:18:55;21.30;;;6.60;;
4980;SDS011;2507;50.392;7.482;2024-01-25T06:21:21;21.90;;;6.33;;
4980;SDS011;2507;50.392;7.482;2024-01-25T06:23:46;28.90;;;6.70;;
4980;SDS011;2507;50.392;7.482;2024-01-25T06:26:11;23.83;;;7.03;;
4980;SDS011;2507;50.392;7.482;2024-01-25T06:28:37;39.57;;;7.00;;
4980;SDS011;2507;50.392;7.482;2024-01-25T06:31:02;22.43;;;6.43;;
4980;SDS011;2507;50.392;7.482;2024-01-25T06:33:27;31.57;;;7.03;;
4980;SDS011;2507;50.392;7.482;2024-01-25T06:35:53;27.23;;;6.90;;
4980;SDS011;2507;50.392;7.482;2024-01-25T06:38:19;28.27;;;6.47;;
4980;SDS011;2507;50.392;7.482;2024-01-25T06:40:44;21.23;;;5.63;;
4980;SDS011;2507;50.392;7.482;2024-01-25T06:43:09;25.97;;;6.67;;
4980;SDS011;2507;50.392;7.482;2024-01-25T06:45:36;28.80;;;7.80;;
4980;SDS011;2507;50.392;7.482;2024-01-25T06:48:02;17.63;;;6.23;;
4980;SDS011;2507;50.392;7.482;2024-01-25T06:50:27;27.47;;;7.20;;
4980;SDS011;2507;50.392;7.482;2024-01-25T06:52:52;22.77;;;7.73;;
4980;SDS011;2507;50.392;7.482;2024-01-25T06:55:18;28.47;;;7.80;;
4980;SDS011;2507;50.392;7.482;2024-01-25T06:57:44;32.17;;;6.37;;
4980;SDS011;2507;50.392;7.482;2024-01-25T07:00:09;23.07;;;6.77;;
4980;SDS011;2507;50.392;7.482;2024-01-25T07:02:37;20.47;;;6.70;;
4980;SDS011;2507;50.392;7.482;2024-01-25T07:05:03;25.73;;;9.43;;
4980;SDS011;2507;50.392;7.482;2024-01-25T07:07:29;20.07;;;7.20;;
4980;SDS011;2507;50.392;7.482;2024-01-25T07:09:55;23.43;;;6.20;;
4980;SDS011;2507;50.392;7.482;2024-01-25T07:12:20;24.30;;;7.00;;
4980;SDS011;2507;50.392;7.482;2024-01-25T07:14:46;34.13;;;8.67;;
4980;SDS011;2507;50.392;7.482;2024-01-25T07:17:11;22.20;;;6.30;;
4980;SDS011;2507;50.392;7.482;2024-01-25T07:19:36;26.70;;;7.00;;
4980;SDS011;2507;50.392;7.482;2024-01-25T07:22:01;29.83;;;6.60;;
4980;SDS011;2507;50.392;7.482;2024-01-25T07:24:27;24.47;;;7.67;;
4980;SDS011;2507;50.392;7.482;2024-01-25T07:26:52;30.33;;;9.50;;
4980;SDS011;2507;50.392;7.482;2024-01-25T07:29:17;27.13;;;8.03;;
4980;SDS011;2507;50.392;7.482;2024-01-25T07:31:43;25.87;;;7.80;;
4980;SDS011;2507;50.392;7.482;2024-01-25T07:34:08;32.57;;;9.00;;
4980;SDS011;2507;50.392;7.482;2024-01-25T07:36:33;25.50;;;8.07;;
4980;SDS011;2507;50.392;7.482;2024-01-25T07:38:59;25.30;;;6.80;;
4980;SDS011;2507;50.392;7.482;2024-01-25T07:41:24;26.30;;;7.00;;
4980;SDS011;2507;50.392;7.482;2024-01-25T07:43:49;24.27;;;7.83;;
4980;SDS011;2507;50.392;7.482;2024-01-25T07:46:14;26.30;;;6.80;;
4980;SDS011;2507;50.392;7.482;2024-01-25T07:48:40;17.10;;;5.87;;
4980;SDS011;2507;50.392;7.482;2024-01-25T07:51:10;24.63;;;6.40;;
4980;SDS011;2507;50.392;7.482;2024-01-25T07:53:37;24.13;;;7.57;;
4980;SDS011;2507;50.392;7.482;2024-01-25T07:56:02;19.83;;;6.10;;
4980;SDS011;2507;50.392;7.482;2024-01-25T07:58:27;28.63;;;7.80;;
4980;SDS011;2507;50.392;7.482;2024-01-25T08:00:55;29.20;;;7.17;;
4980;SDS011;2507;50.392;7.482;2024-01-25T08:03:20;19.27;;;6.60;;
4980;SDS011;2507;50.392;7.482;2024-01-25T08:05:46;16.03;;;6.17;;
4980;SDS011;2507;50.392;7.482;2024-01-25T08:08:11;19.17;;;6.60;;
4980;SDS011;2507;50.392;7.482;2024-01-25T08:10:37;17.77;;;6.17;;
4980;SDS011;2507;50.392;7.482;2024-01-25T08:13:02;27.47;;;7.50;;
4980;SDS011;2507;50.392;7.482;2024-01-25T08:15:27;27.47;;;9.17;;
4980;SDS011;2507;50.392;7.482;2024-01-25T08:17:53;29.37;;;9.73;;
4980;SDS011;2507;50.392;7.482;2024-01-25T08:20:18;35.70;;;12.40;;
4980;SDS011;2507;50.392;7.482;2024-01-25T08:22:43;32.83;;;13.20;;
4980;SDS011;2507;50.392;7.482;2024-01-25T08:25:09;28.13;;;12.87;;
4980;SDS011;2507;50.392;7.482;2024-01-25T08:27:35;27.80;;;13.07;;
4980;SDS011;2507;50.392;7.482;2024-01-25T08:30:00;36.13;;;11.00;;
4980;SDS011;2507;50.392;7.482;2024-01-25T08:32:25;31.53;;;11.07;;
4980;SDS011;2507;50.392;7.482;2024-01-25T08:34:50;25.33;;;8.10;;
4980;SDS011;2507;50.392;7.482;2024-01-25T08:37:16;29.47;;;7.57;;
4980;SDS011;2507;50.392;7.482;2024-01-25T08:39:41;25.70;;;6.27;;
4980;SDS011;2507;50.392;7.482;2024-01-25T08:42:08;27.60;;;7.57;;
4980;SDS011;2507;50.392;7.482;2024-01-25T08:44:33;21.73;;;7.70;;
4980;SDS011;2507;50.392;7.482;2024-01-25T08:46:58;27.63;;;6.60;;
4980;SDS011;2507;50.392;7.482;2024-01-25T08:49:24;28.37;;;6.80;;
4980;SDS011;2507;50.392;7.482;2024-01-25T08:51:49;22.17;;;6.47;;
4980;SDS011;2507;50.392;7.482;2024-01-25T08:54:15;18.10;;;5.47;;
4980;SDS011;2507;50.392;7.482;2024-01-25T08:56:40;33.03;;;5.80;;
4980;SDS011;2507;50.392;7.482;2024-01-25T08:59:06;23.30;;;6.00;;
4980;SDS011;2507;50.392;7.482;2024-01-25T09:01:32;22.63;;;5.93;;
4980;SDS011;2507;50.392;7.482;2024-01-25T09:03:57;21.63;;;5.90;;
4980;SDS011;2507;50.392;7.482;2024-01-25T09:06:27;25.40;;;6.20;;
4980;SDS011;2507;50.392;7.482;2024-01-25T09:08:52;22.03;;;5.80;;
4980;SDS011;2507;50.392;7.482;2024-01-25T09:11:18;30.43;;;5.30;;
4980;SDS011;2507;50.392;7.482;2024-01-25T09:13:44;28.13;;;6.30;;
4980;SDS011;2507;50.392;7.482;2024-01-25T09:16:10;24.13;;;6.73;;
4980;SDS011;2507;50.392;7.482;2024-01-25T09:18:35;18.60;;;6.30;;
4980;SDS011;2507;50.392;7.482;2024-01-25T09:21:00;22.60;;;6.10;;
4980;SDS011;2507;50.392;7.482;2024-01-25T09:23:26;25.77;;;5.70;;
4980;SDS011;2507;50.392;7.482;2024-01-25T09:25:51;21.60;;;5.50;;
4980;SDS011;2507;50.392;7.482;2024-01-25T09:28:16;22.57;;;6.00;;
4980;SDS011;2507;50.392;7.482;2024-01-25T09:30:42;24.70;;;6.03;;
4980;SDS011;2507;50.392;7.482;2024-01-25T09:33:07;24.80;;;5.70;;
4980;SDS011;2507;50.392;7.482;2024-01-25T09:35:32;19.97;;;5.00;;
4980;SDS011;2507;50.392;7.482;2024-01-25T09:37:58;20.13;;;6.50;;
4980;SDS011;2507;50.392;7.482;2024-01-25T09:40:23;16.13;;;5.20;;
4980;SDS011;2507;50.392;7.482;2024-01-25T09:42:49;24.50;;;6.07;;
4980;SDS011;2507;50.392;7.482;2024-01-25T09:45:17;21.77;;;6.30;;
4980;SDS011;2507;50.392;7.482;2024-01-25T09:47:46;20.37;;;5.37;;
4980;SDS011;2507;50.392;7.482;2024-01-25T09:50:13;20.90;;;6.77;;
4980;SDS011;2507;50.392;7.482;2024-01-25T09:52:38;19.50;;;5.40;;
4980;SDS011;2507;50.392;7.482;2024-01-25T09:55:05;20.90;;;6.47;;
4980;SDS011;2507;50.392;7.482;2024-01-25T09:57:32;22.97;;;5.53;;
4980;SDS011;2507;50.392;7.482;2024-01-25T10:00:02;29.03;;;6.60;;
4980;SDS011;2507;50.392;7.482;2024-01-25T10:02:28;24.63;;;7.23;;
4980;SDS011;2507;50.392;7.482;2024-01-25T10:04:54;24.37;;;5.43;;
4980;SDS011;2507;50.392;7.482;2024-01-25T10:10:06;17.17;;;5.10;;
4980;SDS011;2507;50.392;7.482;2024-01-25T10:12:33;23.53;;;6.30;;
4980;SDS011;2507;50.392;7.482;2024-01-25T10:14:58;26.43;;;5.97;;
4980;SDS011;2507;50.392;7.482;2024-01-25T10:17:24;21.50;;;6.73;;
4980;SDS011;2507;50.392;7.482;2024-01-25T10:19:49;28.47;;;6.23;;
4980;SDS011;2507;50.392;7.482;2024-01-25T10:22:15;17.33;;;5.63;;
4980;SDS011;2507;50.392;7.482;2024-01-25T10:24:40;19.80;;;6.70;;
4980;SDS011;2507;50.392;7.482;2024-01-25T10:27:06;22.03;;;6.17;;
4980;SDS011;2507;50.392;7.482;2024-01-25T10:29:34;10.73;;;4.73;;
4980;SDS011;2507;50.392;7.482;2024-01-25T10:31:59;22.20;;;5.17;;
4980;SDS011;2507;50.392;7.482;2024-01-25T10:34:26;24.50;;;6.83;;
4980;SDS011;2507;50.392;7.482;2024-01-25T10:36:53;24.37;;;5.67;;
4980;SDS011;2507;50.392;7.482;2024-01-25T10:39:19;21.10;;;5.30;;
4980;SDS011;2507;50.392;7.482;2024-01-25T10:41:46;26.80;;;5.60;;
4980;SDS011;2507;50.392;7.482;2024-01-25T10:44:15;21.63;;;6.17;;
4980;SDS011;2507;50.392;7.482;2024-01-25T10:46:42;21.47;;;4.73;;
4980;SDS011;2507;50.392;7.482;2024-01-25T10:49:11;18.53;;;6.53;;
4980;SDS011;2507;50.392;7.482;2024-01-25T10:51:37;22.33;;;6.07;;
4980;SDS011;2507;50.392;7.482;2024-01-25T10:54:03;28.67;;;8.70;;
4980;SDS011;2507;50.392;7.482;2024-01-25T10:56:31;18.77;;;5.30;;
4980;SDS011;2507;50.392;7.482;2024-01-25T10:58:57;21.97;;;6.30;;
4980;SDS011;2507;50.392;7.482;2024-01-25T11:01:23;20.80;;;6.53;;
4980;SDS011;2507;50.392;7.482;2024-01-25T11:03:49;21.00;;;4.80;;
4980;SDS011;2507;50.392;7.482;2024-01-25T11:06:14;22.50;;;5.10;;
4980;SDS011;2507;50.392;7.482;2024-01-25T11:08:40;22.70;;;5.93;;
4980;SDS011;2507;50.392;7.482;2024-01-25T11:11:12;17.73;;;5.07;;
4980;SDS011;2507;50.392;7.482;2024-01-25T11:13:39;22.60;;;5.33;;
4980;SDS011;2507;50.392;7.482;2024-01-25T11:16:14;23.53;;;6.80;;
4980;SDS011;2507;50.392;7.482;2024-01-25T11:21:25;25.73;;;5.80;;
4980;SDS011;2507;50.392;7.482;2024-01-25T11:24:04;19.77;;;5.80;;
4980;SDS011;2507;50.392;7.482;2024-01-25T11:26:32;20.77;;;5.83;;
4980;SDS011;2507;50.392;7.482;2024-01-25T11:28:57;23.30;;;6.10;;
4980;SDS011;2507;50.392;7.482;2024-01-25T11:31:25;17.80;;;6.47;;
4980;SDS011;2507;50.392;7.482;2024-01-25T11:33:53;18.87;;;5.80;;
4980;SDS011;2507;50.392;7.482;2024-01-25T11:36:22;22.43;;;5.97;;
4980;SDS011;2507;50.392;7.482;2024-01-25T11:38:47;19.50;;;5.20;;
4980;SDS011;2507;50.392;7.482;2024-01-25T11:41:13;23.80;;;9.03;;
4980;SDS011;2507;50.392;7.482;2024-01-25T11:43:38;17.10;;;6.50;;
4980;SDS011;2507;50.392;7.482;2024-01-25T11:46:05;20.30;;;6.03;;
4980;SDS011;2507;50.392;7.482;2024-01-25T11:48:30;16.97;;;5.17;;
4980;SDS011;2507;50.392;7.482;2024-01-25T11:50:55;25.73;;;6.57;;
4980;SDS011;2507;50.392;7.482;2024-01-25T11:53:23;25.17;;;6.53;;
4980;SDS011;2507;50.392;7.482;2024-01-25T11:55:49;21.93;;;6.43;;
4980;SDS011;2507;50.392;7.482;2024-01-25T11:58:15;24.23;;;6.83;;
4980;SDS011;2507;50.392;7.482;2024-01-25T12:00:41;16.60;;;4.53;;
4980;SDS011;2507;50.392;7.482;2024-01-25T12:03:06;24.10;;;6.20;;
4980;SDS011;2507;50.392;7.482;2024-01-25T12:05:32;24.63;;;6.70;;
4980;SDS011;2507;50.392;7.482;2024-01-25T12:07:58;18.80;;;5.63;;
4980;SDS011;2507;50.392;7.482;2024-01-25T12:10:24;28.60;;;6.17;;
4980;SDS011;2507;50.392;7.482;2024-01-25T12:12:50;18.60;;;4.97;;
4980;SDS011;2507;50.392;7.482;2024-01-25T12:15:16;24.87;;;6.43;;
4980;SDS011;2507;50.392;7.482;2024-01-25T12:17:42;28.67;;;7.53;;
4980;SDS011;2507;50.392;7.482;2024-01-25T12:20:07;25.17;;;6.10;;
4980;SDS011;2507;50.392;7.482;2024-01-25T12:22:36;19.97;;;6.27;;
4980;SDS011;2507;50.392;7.482;2024-01-25T12:25:02;24.67;;;7.30;;
4980;SDS011;2507;50.392;7.482;2024-01-25T12:27:28;26.47;;;7.47;;
4980;SDS011;2507;50.392;7.482;2024-01-25T12:29:55;17.63;;;6.67;;
4980;SDS011;2507;50.392;7.482;2024-01-25T12:32:21;21.07;;;5.47;;
4980;SDS011;2507;50.392;7.482;2024-01-25T12:34:53;23.73;;;6.10;;
4980;SDS011;2507;50.392;7.482;2024-01-25T12:37:26;22.40;;;6.03;;
4980;SDS011;2507;50.392;7.482;2024-01-25T12:39:52;20.57;;;6.57;;
4980;SDS011;2507;50.392;7.482;2024-01-25T12:42:18;19.60;;;6.27;;
4980;SDS011;2507;50.392;7.482;2024-01-25T12:44:44;28.50;;;7.63;;
4980;SDS011;2507;50.392;7.482;2024-01-25T12:47:10;22.50;;;6.10;;
4980;SDS011;2507;50.392;7.482;2024-01-25T12:49:37;24.43;;;5.07;;
4980;SDS011;2507;50.392;7.482;2024-01-25T12:52:04;17.63;;;4.90;;
4980;SDS011;2507;50.392;7.482;2024-01-25T12:54:29;18.43;;;6.03;;
4980;SDS011;2507;50.392;7.482;2024-01-25T12:56:55;15.33;;;4.60;;
4980;SDS011;2507;50.392;7.482;2024-01-25T12:59:20;28.50;;;6.87;;
4980;SDS011;2507;50.392;7.482;2024-01-25T13:01:45;19.23;;;4.60;;
4980;SDS011;2507;50.392;7.482;2024-01-25T13:04:10;20.50;;;5.37;;
4980;SDS011;2507;50.392;7.482;2024-01-25T13:06:36;24.43;;;6.97;;
4980;SDS011;2507;50.392;7.482;2024-01-25T13:09:02;19.67;;;4.70;;
4980;SDS011;2507;50.392;7.482;2024-01-25T13:11:28;15.63;;;5.30;;
4980;SDS011;2507;50.392;7.482;2024-01-25T13:13:54;22.70;;;5.50;;
4980;SDS011;2507;50.392;7.482;2024-01-25T13:16:19;22.80;;;5.63;;
4980;SDS011;2507;50.392;7.482;2024-01-25T13:18:44;17.20;;;5.63;;
4980;SDS011;2507;50.392;7.482;2024-01-25T13:21:10;20.53;;;4.90;;
4980;SDS011;2507;50.392;7.482;2024-01-25T13:23:35;21.97;;;4.73;;
4980;SDS011;2507;50.392;7.482;2024-01-25T13:26:01;18.93;;;5.77;;
4980;SDS011;2507;50.392;7.482;2024-01-25T13:28:26;17.80;;;5.03;;
4980;SDS011;2507;50.392;7.482;2024-01-25T13:30:52;23.00;;;5.50;;
4980;SDS011;2507;50.392;7.482;2024-01-25T13:33:19;18.50;;;6.37;;
4980;SDS011;2507;50.392;7.482;2024-01-25T13:35:44;16.90;;;4.63;;
4980;SDS011;2507;50.392;7.482;2024-01-25T13:38:09;30.70;;;5.40;;
4980;SDS011;2507;50.392;7.482;2024-01-25T13:40:39;17.77;;;4.90;;
4980;SDS011;2507;50.392;7.482;2024-01-25T13:43:04;19.43;;;4.60;;
4980;SDS011;2507;50.392;7.482;2024-01-25T13:45:30;13.70;;;4.67;;
4980;SDS011;2507;50.392;7.482;2024-01-25T13:47:55;13.63;;;3.90;;
4980;SDS011;2507;50.392;7.482;2024-01-25T13:50:20;14.67;;;4.80;;
4980;SDS011;2507;50.392;7.482;2024-01-25T13:52:45;17.33;;;5.10;;
4980;SDS011;2507;50.392;7.482;2024-01-25T13:55:11;18.93;;;5.40;;
4980;SDS011;2507;50.392;7.482;2024-01-25T13:57:36;17.13;;;5.03;;
4980;SDS011;2507;50.392;7.482;2024-01-25T14:00:01;19.13;;;5.47;;
4980;SDS011;2507;50.392;7.482;2024-01-25T14:02:28;17.17;;;4.23;;
4980;SDS011;2507;50.392;7.482;2024-01-25T14:04:54;25.63;;;5.30;;
4980;SDS011;2507;50.392;7.482;2024-01-25T14:07:19;23.20;;;5.77;;
4980;SDS011;2507;50.392;7.482;2024-01-25T14:09:45;16.00;;;4.33;;
4980;SDS011;2507;50.392;7.482;2024-01-25T14:12:11;17.43;;;5.40;;
4980;SDS011;2507;50.392;7.482;2024-01-25T14:14:36;15.60;;;4.57;;
4980;SDS011;2507;50.392;7.482;2024-01-25T14:17:02;22.17;;;4.87;;
4980;SDS011;2507;50.392;7.482;2024-01-25T14:19:27;20.00;;;4.33;;
4980;SDS011;2507;50.392;7.482;2024-01-25T14:21:53;19.43;;;6.77;;
4980;SDS011;2507;50.392;7.482;2024-01-25T14:24:18;20.50;;;5.67;;
4980;SDS011;2507;50.392;7.482;2024-01-25T14:26:44;28.20;;;5.10;;
4980;SDS011;2507;50.392;7.482;2024-01-25T14:29:09;18.67;;;5.23;;
4980;SDS011;2507;50.392;7.482;2024-01-25T14:31:35;15.40;;;5.50;;
4980;SDS011;2507;50.392;7.482;2024-01-25T14:34:01;18.27;;;4.97;;
4980;SDS011;2507;50.392;7.482;2024-01-25T14:36:26;21.00;;;4.30;;
4980;SDS011;2507;50.392;7.482;2024-01-25T14:38:51;16.77;;;4.90;;
4980;SDS011;2507;50.392;7.482;2024-01-25T14:41:17;15.90;;;4.37;;
4980;SDS011;2507;50.392;7.482;2024-01-25T14:43:42;24.43;;;5.13;;
4980;SDS011;2507;50.392;7.482;2024-01-25T14:46:07;15.77;;;4.73;;
4980;SDS011;2507;50.392;7.482;2024-01-25T14:48:33;19.90;;;4.80;;
4980;SDS011;2507;50.392;7.482;2024-01-25T14:50:58;15.80;;;4.60;;
4980;SDS011;2507;50.392;7.482;2024-01-25T14:53:23;14.00;;;4.97;;
4980;SDS011;2507;50.392;7.482;2024-01-25T14:55:49;19.00;;;5.90;;